Time;durP1;ratioP1;P1;durP2;ratioP2;P2;SDS_P1;SDS_P2;PMS_P1;PMS_P2;Temp;Humidity;BMP_temperature;BMP_pressure;BME280_temperature;BME280_humidity;BME280_pressure;Samples;Min_cycle;Max_cycle;Signal;HPM_P1;HPM_P2
2022/09/29 00:01:22;;;;;;;1.25;1.15;;;;;;;19.28;71.15;97299.59;5092260;28;20191;-58
2022/09/29 00:03:48;;;;;;;2.00;1.10;;;;;;;19.17;71.66;97297.47;5092303;28;20641;-58
2022/09/29 00:06:16;;;;;;;1.98;1.23;;;;;;;19.16;72.00;97296.66;5092302;28;20179;-58
2022/09/29 00:08:43;;;;;;;2.85;1.13;;;;;;;19.17;72.00;97294.84;5092239;28;20614;-58
2022/09/29 00:11:15;;;;;;;2.33;1.40;;;;;;;19.17;72.46;97300.09;5092198;28;20199;-58
2022/09/29 00:13:40;;;;;;;2.25;1.10;;;;;;;19.17;72.25;97305.34;5092204;28;20551;-58
2022/09/29 00:16:06;;;;;;;2.03;1.33;;;;;;;19.17;72.23;97300.88;5092194;28;20178;-58
2022/09/29 00:18:33;;;;;;;2.95;1.23;;;;;;;19.17;72.47;97298.25;5092192;28;20172;-58
2022/09/29 00:21:04;;;;;;;1.77;1.33;;;;;;;19.19;72.39;97295.47;5091938;28;20196;-58
2022/09/29 00:23:31;;;;;;;1.17;0.95;;;;;;;19.11;73.18;97303.44;5092174;28;20228;-58
2022/09/29 00:26:08;;;;;;;2.25;1.70;;;;;;;19.04;73.73;97303.38;5090772;28;20179;-58
2022/09/29 00:28:36;;;;;;;2.15;1.27;;;;;;;19.00;74.21;97301.31;5123012;28;20247;-58
2022/09/29 00:31:03;;;;;;;1.35;1.25;;;;;;;18.95;74.38;97303.66;5092000;28;20179;-59
2022/09/29 00:33:30;;;;;;;2.08;1.48;;;;;;;18.96;74.34;97310.53;5092010;28;20199;-58
2022/09/29 00:36:01;;;;;;;2.80;1.40;;;;;;;18.89;74.25;97309.63;5090683;28;20645;-58
2022/09/29 00:38:28;;;;;;;2.35;1.17;;;;;;;18.87;74.17;97299.34;5091988;28;20234;-58
2022/09/29 00:40:54;;;;;;;1.30;1.20;;;;;;;18.88;74.44;97297.53;5091941;28;20245;-58
2022/09/29 00:43:44;;;;;;;1.60;1.30;;;;;;;18.91;73.78;97297.16;5092051;28;20179;-58
2022/09/29 00:46:12;;;;;;;4.90;1.30;;;;;;;18.89;74.41;97291.28;5091787;28;20188;-58
2022/09/29 00:48:39;;;;;;;1.88;1.27;;;;;;;18.89;75.04;97299.16;5091798;28;20195;-58
2022/09/29 00:51:05;;;;;;;3.03;1.35;;;;;;;18.84;75.22;97297.06;5091805;28;20167;-58
2022/09/29 00:53:31;;;;;;;1.27;1.17;;;;;;;18.80;75.66;97295.00;5091870;28;20233;-58
2022/09/29 00:56:06;;;;;;;5.57;1.48;;;;;;;18.62;77.04;97281.47;5091783;28;20175;-58
2022/09/29 00:58:43;;;;;;;2.45;1.63;;;;;;;18.64;77.27;97285.53;5090484;28;20597;-58
2022/09/29 01:01:10;;;;;;;1.50;1.40;;;;;;;18.67;77.41;97281.75;5091662;28;20618;-58
2022/09/29 01:03:41;;;;;;;1.20;1.10;;;;;;;18.66;77.49;97280.91;5091684;28;20167;-58
2022/09/29 01:06:14;;;;;;;2.20;1.50;;;;;;;18.46;78.13;97276.41;5091805;28;20657;-58
2022/09/29 01:08:45;;;;;;;1.27;1.20;;;;;;;18.49;78.27;97273.44;5123250;28;20164;-58
2022/09/29 01:11:12;;;;;;;1.17;1.00;;;;;;;18.49;78.45;97271.63;5092362;28;20187;-58
2022/09/29 01:13:40;;;;;;;2.17;1.38;;;;;;;18.49;77.89;97276.06;5095436;28;20176;-58
2022/09/29 01:16:06;;;;;;;2.90;1.60;;;;;;;18.46;77.71;97302.59;5095674;28;20176;-58
2022/09/29 01:18:31;;;;;;;2.72;1.33;;;;;;;18.52;77.84;97296.63;5095477;28;20183;-58
2022/09/29 01:21:38;;;;;;;1.52;1.17;;;;;;;18.58;77.30;97293.28;5095166;28;20558;-58
2022/09/29 01:24:18;;;;;;;4.15;1.20;;;;;;;18.56;77.23;97284.81;5095509;28;20156;-58
2022/09/29 01:27:02;;;;;;;1.40;1.33;;;;;;;18.61;77.28;97280.66;5095312;28;20549;-58
2022/09/29 01:29:51;;;;;;;1.73;1.63;;;;;;;18.65;77.54;97278.50;5095348;28;20203;-58
2022/09/29 01:32:17;;;;;;;2.38;1.42;;;;;;;18.61;78.13;97285.09;5095264;28;20629;-58
2022/09/29 01:34:42;;;;;;;2.63;1.20;;;;;;;18.55;78.66;97280.56;5095113;28;20675;-58
2022/09/29 01:37:43;;;;;;;4.60;1.50;;;;;;;18.37;79.66;97282.75;5095024;28;20721;-58
2022/09/29 01:40:15;;;;;;;2.45;1.40;;;;;;;18.21;80.74;97290.75;5072536;28;20184;-58
2022/09/29 01:43:01;;;;;;;2.03;1.40;;;;;;;18.10;81.77;97291.19;5091463;28;20194;-58
2022/09/29 01:45:33;;;;;;;2.05;1.55;;;;;;;17.98;82.53;97293.44;5094945;28;20171;-58
2022/09/29 01:48:08;;;;;;;4.75;1.38;;;;;;;17.75;84.15;97297.06;5094852;28;20567;-58
2022/09/29 01:50:45;;;;;;;2.72;1.70;;;;;;;17.55;86.25;97303.78;5095018;28;20155;-58
2022/09/29 01:53:16;;;;;;;1.50;1.40;;;;;;;17.37;87.75;97311.06;5095067;28;20163;-58
2022/09/29 01:55:47;;;;;;;2.60;1.30;;;;;;;17.33;88.81;97312.38;5094849;28;20156;-58
2022/09/29 01:58:21;;;;;;;2.97;2.13;;;;;;;17.26;89.35;97325.31;5094959;28;20156;-58
2022/09/29 02:00:52;;;;;;;1.40;1.30;;;;;;;17.21;89.80;97327.63;5126382;27;20222;-58
2022/09/29 02:03:36;;;;;;;1.30;1.30;;;;;;;17.18;90.27;97327.16;5094618;28;20164;-58
2022/09/29 02:06:06;;;;;;;2.25;1.50;;;;;;;17.14;90.68;97334.53;5094791;28;20191;-58
2022/09/29 02:08:41;;;;;;;1.60;1.50;;;;;;;17.18;91.05;97335.84;5094689;28;20160;-58
2022/09/29 02:11:11;;;;;;;2.35;1.67;;;;;;;17.25;90.66;97330.75;5094463;28;20183;-58
2022/09/29 02:13:45;;;;;;;2.13;1.48;;;;;;;17.27;90.05;97334.00;5094498;28;20183;-58
2022/09/29 02:16:18;;;;;;;1.50;1.40;;;;;;;17.30;90.25;97329.22;5094635;28;20244;-58
2022/09/29 02:18:54;;;;;;;2.13;1.90;;;;;;;17.28;89.82;97323.38;5094407;28;20156;-58
2022/09/29 02:21:21;;;;;;;2.00;1.50;;;;;;;17.25;90.63;97326.31;5094234;28;20650;-58
2022/09/29 02:23:49;;;;;;;3.50;1.60;;;;;;;17.23;90.72;97324.84;5093602;28;20206;-58
2022/09/29 02:26:16;;;;;;;2.65;2.45;;;;;;;17.24;91.95;97323.88;5094105;28;20171;-58
2022/09/29 02:28:42;;;;;;;4.75;2.22;;;;;;;17.16;92.33;97340.44;5094075;28;20194;-58
2022/09/29 02:31:08;;;;;;;4.35;2.33;;;;;;;17.22;91.65;97342.38;5094239;28;20175;-58
2022/09/29 02:33:33;;;;;;;2.95;2.47;;;;;;;17.36;91.16;97353.84;5126982;27;20641;-58
2022/09/29 02:36:26;;;;;;;4.00;2.90;;;;;;;17.39;90.59;97343.09;5093969;28;20258;-58
2022/09/29 02:39:12;;;;;;;3.65;3.22;;;;;;;17.31;90.69;97341.31;5094042;28;20160;-58
2022/09/29 02:42:10;;;;;;;4.95;2.10;;;;;;;17.30;90.53;97331.84;5093918;28;20223;-58
2022/09/29 02:45:14;;;;;;;2.17;1.95;;;;;;;17.28;90.73;97322.53;5092593;27;20635;-58
2022/09/29 02:48:00;;;;;;;1.90;1.80;;;;;;;17.24;91.01;97323.88;5094062;28;20302;-58
2022/09/29 02:50:41;;;;;;;2.72;1.83;;;;;;;17.29;91.09;97334.63;5092312;28;20160;-58
2022/09/29 02:53:15;;;;;;;2.33;2.15;;;;;;;17.32;90.23;97340.31;5093842;28;20160;-58
2022/09/29 02:55:51;;;;;;;1.70;1.60;;;;;;;17.20;90.92;97340.91;5094072;28;20182;-58
2022/09/29 02:58:25;;;;;;;2.50;1.65;;;;;;;17.15;91.32;97341.41;5093710;28;20644;-58
2022/09/29 03:00:52;;;;;;;1.58;1.48;;;;;;;17.06;92.15;97339.00;5093394;28;20614;-58
2022/09/29 03:03:18;;;;;;;1.90;1.67;;;;;;;17.10;92.50;97348.13;5092081;28;20180;-58
2022/09/29 03:05:43;;;;;;;2.80;1.60;;;;;;;17.07;92.93;97351.06;5093321;28;20206;-58
2022/09/29 03:08:09;;;;;;;1.92;1.83;;;;;;;17.01;93.42;97349.97;5093355;28;20172;-58
2022/09/29 03:10:34;;;;;;;2.30;1.73;;;;;;;17.01;93.77;97344.75;5093205;28;20756;-58
2022/09/29 03:13:00;;;;;;;2.67;1.83;;;;;;;16.94;94.39;97353.44;5093181;28;20180;-58
2022/09/29 03:15:25;;;;;;;2.22;2.10;;;;;;;16.96;94.43;97346.25;5093132;28;20182;-58
2022/09/29 03:17:55;;;;;;;4.13;1.95;;;;;;;16.94;95.33;97348.19;5093341;28;20186;-58
2022/09/29 03:20:20;;;;;;;2.63;1.75;;;;;;;17.03;93.88;97347.19;5091587;28;20231;-58
2022/09/29 03:22:46;;;;;;;2.80;2.10;;;;;;;17.00;94.03;97352.75;5093009;28;20285;-58
2022/09/29 03:25:13;;;;;;;2.00;1.90;;;;;;;17.04;93.92;97348.81;5092977;28;20176;-58
2022/09/29 03:27:38;;;;;;;3.17;2.20;;;;;;;17.04;93.87;97352.25;5092936;28;20646;-58
2022/09/29 03:30:04;;;;;;;2.17;2.05;;;;;;;17.01;93.75;97346.53;5091571;28;20225;-58
2022/09/29 03:32:30;;;;;;;1.90;1.80;;;;;;;16.99;94.49;97332.84;5092819;28;20215;-58
2022/09/29 03:34:55;;;;;;;4.13;2.45;;;;;;;16.99;94.16;97338.88;5091992;28;20259;-58
2022/09/29 03:37:20;;;;;;;2.85;1.92;;;;;;;16.99;94.52;97335.44;5092750;28;20168;-58
2022/09/29 03:39:46;;;;;;;2.50;1.67;;;;;;;16.94;94.68;97332.53;5092737;28;20168;-58
2022/09/29 03:42:11;;;;;;;1.80;1.70;;;;;;;16.89;95.62;97330.44;5092693;28;20198;-58
2022/09/29 03:44:37;;;;;;;2.80;1.83;;;;;;;16.91;94.65;97330.28;5092839;28;20245;-58
2022/09/29 03:47:02;;;;;;;2.50;2.10;;;;;;;16.98;94.72;97339.88;5092611;28;20243;-58
2022/09/29 03:49:28;;;;;;;2.13;2.03;;;;;;;16.91;94.96;97343.34;5092558;28;20172;-58
2022/09/29 03:51:53;;;;;;;2.47;2.05;;;;;;;16.94;94.83;97348.19;5092650;28;20274;-58
2022/09/29 03:54:18;;;;;;;4.80;2.10;;;;;;;16.98;94.33;97345.09;5091261;28;20208;-58
2022/09/29 03:56:44;;;;;;;2.35;2.20;;;;;;;17.00;94.05;97343.13;5092456;28;20666;-58
2022/09/29 03:59:10;;;;;;;2.53;1.98;;;;;;;16.98;94.15;97344.28;5091146;28;20664;-58
2022/09/29 04:01:37;;;;;;;2.17;2.08;;;;;;;16.97;94.08;97340.03;5092508;28;20196;-58
2022/09/29 04:04:03;;;;;;;2.40;1.90;;;;;;;17.01;93.91;97339.53;5091045;28;20168;-58
2022/09/29 04:06:29;;;;;;;1.95;1.85;;;;;;;16.95;94.39;97334.97;5092337;28;20254;-58
2022/09/29 04:08:54;;;;;;;4.53;2.38;;;;;;;16.97;94.57;97325.16;5091013;28;20740;-58
2022/09/29 04:11:19;;;;;;;4.13;2.53;;;;;;;16.95;94.53;97327.13;5092236;28;20312;-58
2022/09/29 04:13:45;;;;;;;2.20;2.00;;;;;;;17.06;93.81;97336.38;5092173;28;20167;-58
2022/09/29 04:16:10;;;;;;;3.53;2.38;;;;;;;17.06;93.65;97331.16;5092164;28;20159;-58
2022/09/29 04:18:36;;;;;;;5.13;2.33;;;;;;;17.09;92.98;97341.28;5092176;28;20171;-58
2022/09/29 04:21:06;;;;;;;2.65;2.40;;;;;;;17.08;93.51;97350.13;5091933;28;20204;-58
2022/09/29 04:23:32;;;;;;;2.53;2.33;;;;;;;17.09;92.83;97354.34;5092267;28;20227;-57
2022/09/29 04:25:57;;;;;;;6.30;2.40;;;;;;;17.06;94.23;97354.69;5092363;28;20598;-58
2022/09/29 04:28:24;;;;;;;5.85;2.78;;;;;;;17.15;94.11;97361.50;5092262;28;20228;-58
2022/09/29 04:30:50;;;;;;;3.17;2.70;;;;;;;17.10;94.20;97361.22;5092302;28;20168;-57
2022/09/29 04:33:15;;;;;;;3.40;2.70;;;;;;;16.98;95.65;97367.78;5091997;28;20203;-57
2022/09/29 04:35:41;;;;;;;3.92;2.25;;;;;;;17.13;94.79;97381.78;5091961;28;20667;-58
2022/09/29 04:38:07;;;;;;;2.95;2.58;;;;;;;17.05;96.47;97382.63;5091954;28;20172;-57
2022/09/29 04:40:34;;;;;;;2.67;2.47;;;;;;;17.03;97.01;97383.78;5092067;28;20282;-57
2022/09/29 04:42:59;;;;;;;2.35;2.25;;;;;;;16.96;98.51;97388.88;5091934;28;20200;-59
2022/09/29 04:45:25;;;;;;;3.45;2.47;;;;;;;16.99;98.80;97387.72;5093023;28;20252;-58
2022/09/29 04:47:50;;;;;;;2.80;2.50;;;;;;;16.96;100.00;97396.69;5095981;28;20653;-58
2022/09/29 04:50:16;;;;;;;4.28;2.92;;;;;;;17.03;99.67;97397.66;5095913;28;20176;-58
2022/09/29 04:52:42;;;;;;;3.10;2.90;;;;;;;17.20;97.44;97411.50;5095995;28;20167;-58
2022/09/29 04:55:10;;;;;;;2.95;2.63;;;;;;;17.37;95.56;97418.28;5095890;28;20168;-58
2022/09/29 04:57:36;;;;;;;4.10;2.58;;;;;;;17.40;94.86;97410.09;5094533;28;20172;-58
2022/09/29 05:00:03;;;;;;;4.70;2.90;;;;;;;17.48;94.50;97412.69;5095762;28;20163;-59
2022/09/29 05:02:29;;;;;;;7.10;3.25;;;;;;;17.53;94.53;97419.03;5095921;28;20639;-59
2022/09/29 05:04:54;;;;;;;4.45;2.92;;;;;;;17.57;94.42;97415.09;5095693;28;20206;-58
2022/09/29 05:07:20;;;;;;;3.90;2.92;;;;;;;17.60;94.66;97419.16;5094376;28;20232;-58
2022/09/29 05:09:45;;;;;;;3.20;2.78;;;;;;;17.67;94.39;97426.13;5095816;28;20175;-58
2022/09/29 05:12:10;;;;;;;4.88;3.35;;;;;;;17.78;93.00;97419.69;5094161;28;20689;-58
2022/09/29 05:14:36;;;;;;;2.90;2.70;;;;;;;17.82;91.58;97421.78;5095678;28;20714;-58
2022/09/29 05:17:01;;;;;;;3.05;2.85;;;;;;;17.91;89.95;97419.94;5095448;28;20194;-58
2022/09/29 05:19:27;;;;;;;3.08;2.67;;;;;;;17.93;90.34;97416.16;5095276;28;20198;-57
2022/09/29 05:21:52;;;;;;;5.78;2.97;;;;;;;18.06;89.20;97415.53;5094019;28;20196;-58
2022/09/29 05:24:18;;;;;;;2.63;2.22;;;;;;;18.09;88.61;97420.44;5095321;28;20171;-58
2022/09/29 05:26:43;;;;;;;2.40;2.30;;;;;;;18.11;87.90;97432.38;5093936;28;20317;-58
2022/09/29 05:29:09;;;;;;;3.83;2.58;;;;;;;17.97;88.87;97427.09;5093948;28;20183;-58
2022/09/29 05:31:34;;;;;;;5.15;3.45;;;;;;;18.00;89.31;97431.97;5093914;28;20179;-58
2022/09/29 05:33:59;;;;;;;22.40;4.88;;;;;;;17.69;91.34;97418.94;5095365;28;20194;-58
2022/09/29 05:36:25;;;;;;;4.80;4.20;;;;;;;17.74;92.14;97436.72;5095364;28;20179;-58
2022/09/29 05:38:50;;;;;;;6.40;3.65;;;;;;;17.74;91.61;97427.09;5095033;28;20175;-58
2022/09/29 05:41:21;;;;;;;6.32;3.92;;;;;;;17.81;91.60;97432.41;5094995;28;20635;-58
2022/09/29 05:43:47;;;;;;;4.13;3.65;;;;;;;17.83;91.90;97430.47;5095325;28;20591;-58
2022/09/29 05:46:14;;;;;;;7.05;4.18;;;;;;;17.90;91.87;97428.78;5095610;28;20561;-58
2022/09/29 05:48:39;;;;;;;8.38;3.47;;;;;;;17.97;91.26;97437.56;5094880;28;20649;-58
2022/09/29 05:51:08;;;;;;;5.57;3.80;;;;;;;17.97;91.59;97435.75;5094770;28;20178;-59
2022/09/29 05:53:34;;;;;;;3.75;3.40;;;;;;;17.95;91.80;97439.53;5093486;28;20615;-58
2022/09/29 05:56:04;;;;;;;3.50;3.22;;;;;;;18.04;90.47;97433.25;5093385;28;20219;-58
2022/09/29 05:58:30;;;;;;;3.83;3.53;;;;;;;18.06;89.32;97431.25;5094076;28;20178;-58
2022/09/29 06:00:55;;;;;;;6.43;3.35;;;;;;;18.12;90.36;97426.16;5094528;28;20274;-58
2022/09/29 06:03:21;;;;;;;5.05;3.05;;;;;;;18.22;90.70;97418.03;5094700;28;20172;-58
2022/09/29 06:05:46;;;;;;;5.15;2.78;;;;;;;18.29;90.60;97416.34;5094592;28;20225;-58
2022/09/29 06:08:12;;;;;;;4.72;3.10;;;;;;;18.34;88.35;97420.09;5094473;28;20180;-58
2022/09/29 06:10:37;;;;;;;3.72;3.08;;;;;;;18.43;87.97;97407.75;5093106;28;20237;-58
2022/09/29 06:13:02;;;;;;;5.72;3.00;;;;;;;18.57;88.25;97412.19;5094396;28;20262;-58
2022/09/29 06:15:28;;;;;;;2.67;2.47;;;;;;;18.68;87.85;97415.19;5094319;28;20178;-58
2022/09/29 06:17:57;;;;;;;3.17;2.92;;;;;;;18.79;86.75;97413.94;5093086;28;20777;-58
2022/09/29 06:20:23;;;;;;;7.03;3.28;;;;;;;18.89;85.09;97410.03;5094143;28;20270;-58
2022/09/29 06:22:50;;;;;;;3.53;2.72;;;;;;;19.04;84.28;97415.28;5094229;28;20266;-58
2022/09/29 06:25:15;;;;;;;4.82;3.30;;;;;;;19.07;84.22;97414.94;5092921;28;20176;-58
2022/09/29 06:27:41;;;;;;;3.53;2.40;;;;;;;19.11;83.31;97403.09;5092804;28;20194;-58
2022/09/29 06:30:07;;;;;;;2.95;2.50;;;;;;;19.23;82.14;97412.16;5094092;28;20645;-58
2022/09/29 06:32:33;;;;;;;2.50;2.35;;;;;;;19.34;80.94;97409.03;5094252;28;20175;-58
2022/09/29 06:37:45;;;;;;;2.60;2.40;;;;;;;19.46;81.11;97410.22;5121739;27;20225;-58
2022/09/29 06:40:11;;;;;;;2.58;2.40;;;;;;;19.46;81.06;97402.34;5093734;28;20195;-59
2022/09/29 06:42:37;;;;;;;4.18;2.40;;;;;;;19.53;80.72;97397.97;5093814;28;20184;-58
2022/09/29 06:45:03;;;;;;;4.15;2.72;;;;;;;19.61;79.99;97405.72;5093829;28;20175;-58
2022/09/29 06:47:29;;;;;;;2.55;2.35;;;;;;;19.62;80.03;97399.47;5092428;28;20183;-58
2022/09/29 06:49:54;;;;;;;2.83;2.25;;;;;;;19.69;79.75;97410.88;5093814;28;20544;-59
2022/09/29 06:52:20;;;;;;;4.18;2.60;;;;;;;19.74;79.49;97400.63;5094085;28;20213;-58
2022/09/29 06:54:45;;;;;;;3.72;2.63;;;;;;;19.84;79.77;97396.72;5093852;28;20633;-58
2022/09/29 06:57:12;;;;;;;4.60;2.50;;;;;;;19.99;78.55;97400.06;5093524;28;20634;-58
2022/09/29 06:59:38;;;;;;;4.32;2.40;;;;;;;20.12;78.02;97402.03;5093501;28;20172;-58
2022/09/29 07:02:03;;;;;;;3.72;3.42;;;;;;;20.20;77.29;97399.28;5093302;28;20566;-58
2022/09/29 07:04:28;;;;;;;2.60;2.40;;;;;;;20.30;77.15;97397.16;5093594;28;20163;-58
2022/09/29 07:06:54;;;;;;;3.00;2.42;;;;;;;20.45;75.79;97405.75;5093384;28;20603;-58
2022/09/29 07:09:20;;;;;;;8.95;3.60;;;;;;;20.48;77.53;97414.06;5093266;28;20183;-58
2022/09/29 07:11:48;;;;;;;4.95;3.60;;;;;;;20.56;77.79;97424.44;5093205;28;20271;-58
2022/09/29 07:14:15;;;;;;;8.45;3.65;;;;;;;20.67;79.22;97428.34;5093323;28;20176;-58
2022/09/29 07:16:40;;;;;;;4.10;3.40;;;;;;;20.64;80.38;97437.44;5093136;28;20636;-58
2022/09/29 07:19:06;;;;;;;6.18;3.78;;;;;;;20.73;80.02;97430.22;5093073;28;20183;-58
2022/09/29 07:21:32;;;;;;;5.07;3.50;;;;;;;20.84;79.35;97435.75;5093257;28;20245;-58
2022/09/29 07:23:57;;;;;;;7.18;3.50;;;;;;;20.90;79.27;97440.28;5093036;28;20168;-58
2022/09/29 07:26:22;;;;;;;5.43;3.40;;;;;;;20.99;77.94;97447.00;5092954;28;20660;-58
2022/09/29 07:28:48;;;;;;;29.33;5.15;;;;;;;21.12;76.56;97441.00;5092960;28;20175;-59
2022/09/29 07:31:16;;;;;;;9.35;3.83;;;;;;;21.17;76.16;97447.34;5092920;28;20601;-58
2022/09/29 07:33:47;;;;;;;4.22;3.20;;;;;;;21.28;76.04;97445.97;5092832;28;20172;-58
2022/09/29 07:36:14;;;;;;;8.25;3.30;;;;;;;21.40;74.21;97436.50;5093078;28;20167;-59
2022/09/29 07:38:40;;;;;;;6.28;3.20;;;;;;;21.40;73.59;97439.13;5092794;28;20250;-58
2022/09/29 07:41:08;;;;;;;5.93;3.58;;;;;;;21.49;72.33;97443.22;5092949;28;20295;-58
2022/09/29 07:43:33;;;;;;;4.55;2.85;;;;;;;21.55;72.00;97443.25;5092704;28;20254;-58
2022/09/29 07:45:59;;;;;;;4.50;3.42;;;;;;;21.57;72.16;97440.44;5092655;28;20256;-58
2022/09/29 07:48:26;;;;;;;8.65;3.35;;;;;;;21.60;71.80;97440.03;5092645;28;20258;-58
2022/09/29 07:50:52;;;;;;;8.68;3.25;;;;;;;21.64;71.52;97442.09;5092525;28;20740;-58
2022/09/29 07:53:17;;;;;;;8.90;3.80;;;;;;;21.71;71.41;97440.31;5092540;28;20203;-58
2022/09/29 07:55:43;;;;;;;4.82;3.05;;;;;;;21.76;71.00;97440.53;5092466;28;20182;-59
2022/09/29 07:58:09;;;;;;;4.55;3.35;;;;;;;21.81;70.06;97446.03;5091215;28;20194;-59
2022/09/29 08:00:34;;;;;;;7.75;3.15;;;;;;;21.80;70.79;97447.00;5091080;28;20206;-59
2022/09/29 08:03:01;;;;;;;7.63;3.67;;;;;;;21.80;70.54;97454.91;5092396;28;20229;-58
2022/09/29 08:05:28;;;;;;;6.05;3.20;;;;;;;21.89;70.67;97455.53;5092545;28;20178;-58
2022/09/29 08:07:53;;;;;;;4.68;3.20;;;;;;;21.94;69.64;97469.75;5092336;28;20202;-58
2022/09/29 08:10:19;;;;;;;9.32;3.45;;;;;;;21.98;69.79;97470.16;5092451;28;20175;-58
2022/09/29 08:12:44;;;;;;;9.23;3.67;;;;;;;22.00;69.60;97466.31;5092509;28;20261;-58
2022/09/29 08:15:10;;;;;;;6.38;3.60;;;;;;;22.02;68.46;97463.50;5092205;28;20258;-58
2022/09/29 08:17:35;;;;;;;7.70;3.50;;;;;;;22.06;68.94;97462.06;5092445;28;20206;-58
2022/09/29 08:20:00;;;;;;;4.07;3.30;;;;;;;22.13;69.72;97462.88;5091724;28;20642;-58
2022/09/29 08:22:26;;;;;;;8.45;3.90;;;;;;;22.18;69.93;97476.28;5092351;28;20231;-58
2022/09/29 08:24:51;;;;;;;7.15;3.97;;;;;;;22.22;69.46;97475.69;5092107;28;20263;-58
2022/09/29 08:27:17;;;;;;;6.40;3.80;;;;;;;22.28;69.19;97479.34;5092060;28;20179;-58
2022/09/29 08:29:42;;;;;;;13.30;4.38;;;;;;;22.34;67.41;97475.91;5092278;28;20186;-58
2022/09/29 08:32:08;;;;;;;12.93;3.83;;;;;;;22.40;67.08;97477.75;5092063;28;20171;-58
2022/09/29 08:34:33;;;;;;;11.73;3.78;;;;;;;22.45;67.42;97485.91;5092032;28;20203;-58
2022/09/29 08:36:58;;;;;;;7.82;3.78;;;;;;;22.46;67.20;97484.88;5092126;28;20265;-58
2022/09/29 08:39:24;;;;;;;8.18;3.38;;;;;;;22.50;65.00;97483.47;5091933;28;20656;-58
2022/09/29 08:42:04;;;;;;;5.55;3.10;;;;;;;22.52;65.28;97489.34;5091891;28;20274;-58
2022/09/29 08:44:39;;;;;;;11.18;3.90;;;;;;;22.59;66.03;97487.50;5092356;28;20162;-58
2022/09/29 08:47:17;;;;;;;4.93;2.95;;;;;;;22.73;64.60;97478.59;5090663;28;20250;-58
2022/09/29 08:49:49;;;;;;;5.43;2.70;;;;;;;22.77;63.50;97479.81;5092136;28;20179;-58
2022/09/29 08:52:26;;;;;;;4.20;2.60;;;;;;;22.82;63.57;97488.75;5091945;28;20231;-58
2022/09/29 08:55:01;;;;;;;9.63;2.65;;;;;;;22.86;63.16;97491.78;5090629;28;20248;-58
2022/09/29 08:57:27;;;;;;;5.00;2.60;;;;;;;22.96;61.93;97486.91;5090577;28;20172;-58
2022/09/29 08:59:56;;;;;;;4.18;2.58;;;;;;;23.03;61.22;97496.47;5124507;28;20722;-58
2022/09/29 09:02:30;;;;;;;5.50;2.70;;;;;;;23.04;61.51;97490.16;5091657;28;20629;-58
2022/09/29 09:04:56;;;;;;;3.97;2.58;;;;;;;23.08;60.65;97495.84;5091802;28;20579;-58
2022/09/29 09:07:52;;;;;;;5.85;2.33;;;;;;;23.11;60.34;97487.50;5091974;28;20191;-58
2022/09/29 09:10:20;;;;;;;6.07;2.90;;;;;;;23.13;60.05;97493.41;5091710;28;20168;-58
2022/09/29 09:13:04;;;;;;;3.65;2.70;;;;;;;23.16;60.15;97482.41;5091852;28;20182;-58
2022/09/29 09:15:40;;;;;;;6.85;3.25;;;;;;;23.19;60.02;97484.69;5091690;28;20164;-58
2022/09/29 09:18:24;;;;;;;7.30;2.95;;;;;;;23.23;60.06;97488.50;5091606;28;20645;-58
2022/09/29 09:21:18;;;;;;;5.82;2.60;;;;;;;23.23;60.03;97493.78;5091471;28;20689;-58
2022/09/29 09:24:03;;;;;;;6.75;2.55;;;;;;;23.24;59.46;97492.81;5091921;28;20168;-58
2022/09/29 09:26:38;;;;;;;7.22;2.58;;;;;;;23.33;59.89;97492.38;5091789;28;20163;-58
2022/09/29 09:29:12;;;;;;;4.15;2.58;;;;;;;23.38;60.15;97487.28;5092059;28;20159;-58
2022/09/29 09:31:43;;;;;;;11.48;3.05;;;;;;;23.47;59.25;97486.03;5091839;28;20312;-58
2022/09/29 09:34:26;;;;;;;5.28;2.92;;;;;;;23.54;59.15;97488.66;5095695;28;20160;-58
2022/09/29 09:37:00;;;;;;;5.68;2.50;;;;;;;23.63;60.32;97475.78;5094661;28;20174;-58
2022/09/29 09:39:25;;;;;;;5.88;2.50;;;;;;;23.62;58.62;97477.84;5095571;28;20171;-58
2022/09/29 09:41:55;;;;;;;9.35;2.63;;;;;;;23.63;58.31;97471.53;5094957;28;20601;-58
2022/09/29 09:44:37;;;;;;;4.53;2.60;;;;;;;23.84;58.68;97464.13;5095267;28;20180;-58
2022/09/29 09:47:22;;;;;;;4.25;2.63;;;;;;;23.91;59.72;97467.59;5095229;28;20164;-58
2022/09/29 09:49:56;;;;;;;9.27;3.08;;;;;;;23.87;59.17;97450.50;5095118;28;20168;-58
2022/09/29 09:52:23;;;;;;;9.43;3.13;;;;;;;23.93;59.29;97454.97;5095153;28;20174;-58
2022/09/29 09:55:14;;;;;;;6.07;2.60;;;;;;;23.99;59.16;97454.13;5095278;28;20657;-58
2022/09/29 09:57:51;;;;;;;5.15;2.53;;;;;;;24.13;57.61;97453.84;5094800;28;20573;-58
2022/09/29 10:00:40;;;;;;;4.53;2.95;;;;;;;24.08;58.00;97458.94;5093573;28;20194;-58
2022/09/29 10:03:07;;;;;;;5.72;3.10;;;;;;;24.13;58.99;97454.84;5094714;28;20545;-58
2022/09/29 10:05:40;;;;;;;9.07;3.15;;;;;;;24.07;58.60;97463.63;5094618;28;20645;-58
2022/09/29 10:08:11;;;;;;;5.28;2.70;;;;;;;24.12;59.17;97458.53;5094565;28;20179;-58
2022/09/29 10:10:40;;;;;;;5.20;2.70;;;;;;;24.19;57.49;97471.47;5094459;28;20278;-58
2022/09/29 10:13:10;;;;;;;4.20;2.92;;;;;;;24.19;57.58;97471.47;5094704;28;20520;-58
2022/09/29 10:15:45;;;;;;;8.05;3.15;;;;;;;24.23;57.88;97481.66;5094417;28;20171;-58
2022/09/29 10:18:36;;;;;;;8.35;3.20;;;;;;;24.28;57.91;97472.88;5094365;28;20654;-58
2022/09/29 10:21:01;;;;;;;6.55;3.13;;;;;;;24.29;58.15;97473.66;5094164;28;20206;-58
2022/09/29 10:23:35;;;;;;;6.78;2.72;;;;;;;24.31;59.18;97461.84;5092968;28;20171;-58
2022/09/29 10:26:03;;;;;;;7.57;3.58;;;;;;;24.34;59.41;97469.38;5094188;28;20653;-58
2022/09/29 10:28:39;;;;;;;4.70;2.72;;;;;;;24.41;59.37;97470.13;5092854;28;20203;-58
2022/09/29 10:31:16;;;;;;;3.92;2.83;;;;;;;24.45;58.67;97466.00;5094598;28;20144;-58
2022/09/29 10:33:49;;;;;;;5.93;3.45;;;;;;;24.52;57.45;97472.09;5094582;28;20163;-58
2022/09/29 10:36:19;;;;;;;5.22;3.13;;;;;;;24.48;57.53;97473.53;5094523;28;20196;-58
2022/09/29 10:38:47;;;;;;;6.80;3.45;;;;;;;24.52;56.96;97473.91;5093880;28;20269;-58
2022/09/29 10:41:12;;;;;;;3.42;3.10;;;;;;;24.62;58.73;97468.97;5092523;28;20195;-59
2022/09/29 10:43:41;;;;;;;6.30;3.40;;;;;;;24.67;59.18;97469.94;5094006;28;20179;-58
2022/09/29 10:46:45;;;;;;;8.70;3.20;;;;;;;24.80;58.36;97464.56;5093797;28;20199;-58
2022/09/29 10:49:16;;;;;;;2.95;2.45;;;;;;;24.96;57.59;97466.63;5093690;28;20681;-58
2022/09/29 10:51:53;;;;;;;4.30;3.25;;;;;;;25.08;55.51;97462.25;5093732;28;20167;-58
2022/09/29 10:54:24;;;;;;;5.90;2.90;;;;;;;25.27;55.99;97461.28;5093907;28;20152;-58
2022/09/29 10:56:51;;;;;;;5.18;3.00;;;;;;;25.47;54.45;97464.50;5093726;28;20148;-58
2022/09/29 10:59:17;;;;;;;7.13;3.30;;;;;;;25.65;53.95;97461.06;5093535;28;20555;-59
2022/09/29 11:01:50;;;;;;;3.88;3.47;;;;;;;25.71;53.25;97455.66;5093434;28;20219;-59
2022/09/29 11:04:27;;;;;;;3.75;2.60;;;;;;;25.91;52.70;97461.56;5093487;28;20255;-59
2022/09/29 11:06:53;;;;;;;8.10;3.03;;;;;;;25.98;51.98;97462.28;5093434;28;20652;-58
2022/09/29 11:09:18;;;;;;;7.10;2.85;;;;;;;25.90;51.59;97459.91;5093346;28;20176;-58
2022/09/29 11:11:46;;;;;;;6.30;3.13;;;;;;;26.08;51.73;97459.91;5093277;28;20219;-58
2022/09/29 11:14:36;;;;;;;4.88;2.88;;;;;;;26.27;51.88;97450.84;5093181;28;20271;-59
2022/09/29 11:17:22;;;;;;;4.80;2.70;;;;;;;26.48;52.20;97450.28;5093460;28;20217;-59
2022/09/29 11:19:49;;;;;;;6.10;3.35;;;;;;;26.64;53.10;97452.31;5091809;28;20610;-59
2022/09/29 11:22:47;;;;;;;4.75;3.00;;;;;;;26.69;50.41;97441.84;5093074;28;20199;-59
2022/09/29 11:25:16;;;;;;;3.88;3.22;;;;;;;26.76;49.74;97436.41;5093346;28;20182;-58
2022/09/29 11:27:41;;;;;;;3.50;3.08;;;;;;;26.89;49.62;97431.66;5092910;28;20545;-58
2022/09/29 11:30:21;;;;;;;4.28;2.60;;;;;;;27.02;49.47;97430.63;5093225;28;20274;-58
2022/09/29 11:33:05;;;;;;;8.25;3.20;;;;;;;26.97;48.50;97434.00;5093136;28;20622;-59
2022/09/29 11:35:38;;;;;;;5.55;2.50;;;;;;;26.99;48.44;97433.78;5093136;28;20535;-58
2022/09/29 11:38:21;;;;;;;5.25;2.65;;;;;;;27.10;48.43;97433.75;5093086;28;20582;-58
2022/09/29 11:41:34;;;;;;;10.15;2.63;;;;;;;27.24;47.84;97429.81;5093265;28;20199;-59
2022/09/29 11:44:37;;;;;;;6.32;2.92;;;;;;;27.51;46.22;97427.50;5073181;28;20195;-58
2022/09/29 11:47:17;;;;;;;7.13;2.40;;;;;;;27.62;44.91;97416.81;5092620;28;20232;-58
2022/09/29 11:50:00;;;;;;;4.72;2.55;;;;;;;27.47;46.28;97413.84;5092735;28;20193;-59
2022/09/29 11:53:01;;;;;;;4.72;2.70;;;;;;;27.48;47.30;97420.78;5092613;28;20160;-58